createdAt,value
2018-09-28T00:04:25.401Z,101386.32
2018-09-28T00:09:17.970Z,101388.22
2018-09-28T00:14:10.544Z,101384.89
2018-09-28T00:19:03.145Z,101390.00
2018-09-28T00:23:55.750Z,101383.34
2018-09-28T00:28:48.417Z,101379.21
2018-09-28T00:33:41.026Z,101373.45
2018-09-28T00:38:33.655Z,101369.28
2018-09-28T00:43:26.296Z,101369.33
2018-09-28T00:48:18.935Z,101364.63
2018-09-28T00:53:11.526Z,101365.41
2018-09-28T00:58:04.152Z,101355.03
2018-09-28T01:02:56.754Z,101351.20
2018-09-28T01:07:49.378Z,101352.77
2018-09-28T01:12:42.105Z,101350.77
2018-09-28T01:17:34.701Z,101345.79
2018-09-28T01:22:27.271Z,101335.89
2018-09-28T01:27:20.040Z,101339.63
2018-09-28T01:32:12.683Z,101343.65
2018-09-28T01:37:05.307Z,101337.58
2018-09-28T01:41:57.951Z,101337.00
2018-09-28T01:46:50.555Z,101340.73
2018-09-28T01:51:43.176Z,101333.33
2018-09-28T01:56:35.791Z,101339.71
2018-09-28T02:01:28.455Z,101334.66
2018-09-28T02:06:21.117Z,101334.06
2018-09-28T02:11:13.737Z,101336.14
2018-09-28T02:16:06.418Z,101333.13
2018-09-28T02:20:59.067Z,101340.16
2018-09-28T02:25:51.738Z,101332.70
2018-09-28T02:30:44.323Z,101337.47
2018-09-28T02:35:36.923Z,101341.19
2018-09-28T02:40:29.539Z,101341.67
2018-09-28T02:45:22.202Z,101336.47
2018-09-28T02:50:14.869Z,101338.36
2018-09-28T02:55:07.544Z,101329.10
2018-09-28T03:00:00.148Z,101332.88
2018-09-28T03:04:52.804Z,101330.94
2018-09-28T03:09:45.511Z,101330.06
2018-09-28T03:14:38.123Z,101329.51
2018-09-28T03:19:30.812Z,101334.29
2018-09-28T03:24:23.370Z,101343.20
2018-09-28T03:29:15.974Z,101340.43
2018-09-28T03:34:08.632Z,101338.47
2018-09-28T03:39:01.283Z,101345.72
2018-09-28T03:43:53.975Z,101342.19
2018-09-28T03:48:46.609Z,101346.46
2018-09-28T03:53:39.207Z,101342.40
2018-09-28T03:58:31.888Z,101354.33
2018-09-28T04:03:24.561Z,101344.52
2018-09-28T04:08:17.229Z,101341.70
2018-09-28T04:13:09.836Z,101342.47
2018-09-28T04:18:02.487Z,101346.51
2018-09-28T04:22:55.173Z,101357.52
2018-09-28T04:27:47.821Z,101355.81
2018-09-28T04:32:40.429Z,101353.61
2018-09-28T04:37:33.119Z,101355.44
2018-09-28T04:42:25.824Z,101358.83
2018-09-28T04:47:18.538Z,101375.34
2018-09-28T04:52:11.187Z,101376.97
2018-09-28T04:57:04.208Z,101380.23
2018-09-28T05:01:56.904Z,101388.06
2018-09-28T05:06:49.618Z,101398.64
2018-09-28T05:11:42.630Z,101408.39
2018-09-28T05:16:35.245Z,101422.52
2018-09-28T05:21:27.881Z,101428.00
2018-09-28T05:26:20.592Z,101438.97
2018-09-28T05:31:13.343Z,101445.01
2018-09-28T05:36:05.986Z,101445.37
2018-09-28T05:40:58.660Z,101457.33
2018-09-28T05:45:51.362Z,101476.59
2018-09-28T05:50:43.987Z,101478.28
2018-09-28T05:55:36.783Z,101483.17
2018-09-28T06:00:36.237Z,101486.18
2018-09-28T06:05:31.792Z,101495.95
2018-09-28T06:10:24.386Z,101500.91
2018-09-28T06:15:17.473Z,101503.69
2018-09-28T06:20:10.479Z,101513.20
2018-09-28T06:25:03.504Z,101516.21
2018-09-28T06:29:56.562Z,101532.02
2018-09-28T06:34:49.540Z,101538.03
2018-09-28T06:39:42.375Z,101559.48
2018-09-28T06:44:35.345Z,101563.18
2018-09-28T06:50:31.579Z,101566.64
2018-09-28T06:55:24.363Z,101581.30
2018-09-28T07:00:17.444Z,101592.02
2018-09-28T07:05:10.412Z,101595.50
2018-09-28T07:10:03.162Z,101603.97
2018-09-28T07:14:56.065Z,101601.61
2018-09-28T07:19:48.934Z,101608.60
2018-09-28T07:24:41.806Z,101623.94
2018-09-28T07:29:34.649Z,101632.95
2018-09-28T07:34:27.619Z,101636.13
2018-09-28T07:39:20.537Z,101647.22
2018-09-28T07:44:13.468Z,101652.38
2018-09-28T07:49:06.685Z,101654.53
2018-09-28T07:53:59.565Z,101672.06
2018-09-28T07:58:52.454Z,101671.95
2018-09-28T08:03:45.632Z,101674.55
2018-09-28T08:08:38.603Z,101690.05
2018-09-28T08:13:31.501Z,101703.45
2018-09-28T08:18:24.544Z,101710.16
2018-09-28T08:23:17.498Z,101707.98
2018-09-28T08:28:10.376Z,101712.56
2018-09-28T08:33:03.127Z,101720.94
2018-09-28T08:37:55.766Z,101713.16
2018-09-28T08:42:48.371Z,101718.79
2018-09-28T08:47:41.144Z,101725.67
2018-09-28T08:52:34.011Z,101723.64
2018-09-28T08:57:26.836Z,101730.74
2018-09-28T09:02:19.538Z,101742.44
2018-09-28T09:07:12.139Z,101747.92
2018-09-28T09:12:04.804Z,101748.78
2018-09-28T09:16:57.519Z,101761.12
2018-09-28T09:21:50.183Z,101751.60
2018-09-28T09:26:42.848Z,101750.31
2018-09-28T09:31:35.555Z,101758.56
2018-09-28T09:36:28.212Z,101766.13
2018-09-28T09:41:20.903Z,101770.60
2018-09-28T09:46:13.527Z,101773.91
2018-09-28T09:51:06.400Z,101765.81
2018-09-28T09:56:01.856Z,101764.53
2018-09-28T10:01:00.787Z,101768.66
2018-09-28T10:05:53.458Z,101768.97
2018-09-28T10:10:46.037Z,101770.34
2018-09-28T10:15:38.683Z,101758.06
2018-09-28T10:20:31.289Z,101755.31
2018-09-28T10:25:24.163Z,101764.61
2018-09-28T10:30:16.936Z,101756.92
2018-09-28T10:35:09.576Z,101753.30
2018-09-28T10:40:02.284Z,101765.36
2018-09-28T10:44:54.903Z,101764.86
2018-09-28T10:49:47.561Z,101771.73
2018-09-28T10:54:40.183Z,101768.95
2018-09-28T10:59:32.892Z,101770.05
2018-09-28T11:04:25.766Z,101772.73
2018-09-28T11:09:18.453Z,101766.70
2018-09-28T11:14:11.050Z,101770.22
2018-09-28T11:19:03.939Z,101775.89
2018-09-28T11:23:56.506Z,101773.65
2018-09-28T11:28:49.127Z,101770.30
2018-09-28T11:33:41.917Z,101780.17
2018-09-28T11:38:34.775Z,101771.95
2018-09-28T11:43:27.468Z,101780.78
2018-09-28T11:48:20.043Z,101780.78
2018-09-28T11:53:12.690Z,101779.18
2018-09-28T11:58:05.405Z,101769.91
2018-09-28T12:02:58.278Z,101770.73
2018-09-28T12:07:50.945Z,101774.34
2018-09-28T12:12:44.527Z,101770.54
2018-09-28T12:17:37.161Z,101783.94
2018-09-28T12:22:29.812Z,101777.86
2018-09-28T12:27:22.555Z,101782.74
2018-09-28T12:32:15.196Z,101782.98
2018-09-28T12:37:07.918Z,101777.15
2018-09-28T12:42:00.536Z,101788.38
2018-09-28T12:46:53.215Z,101787.55
2018-09-28T12:51:45.889Z,101772.67
2018-09-28T12:56:38.605Z,101777.80
2018-09-28T13:01:32.335Z,101774.97
2018-09-28T13:06:25.005Z,101784.06
2018-09-28T13:11:17.856Z,101794.83
2018-09-28T13:16:10.667Z,101785.56
2018-09-28T13:21:03.461Z,101805.03
2018-09-28T13:25:56.127Z,101802.52
2018-09-28T13:30:48.816Z,101816.16
2018-09-28T13:35:41.527Z,101814.43
2018-09-28T13:40:34.174Z,101820.50
2018-09-28T13:45:26.893Z,101833.53
2018-09-28T13:50:19.559Z,101816.05
2018-09-28T13:55:12.342Z,101821.56
2018-09-28T14:00:05.778Z,101830.91
2018-09-28T14:04:58.547Z,101827.63
2018-09-28T14:09:51.195Z,101844.08
2018-09-28T14:14:43.904Z,101840.25
2018-09-28T14:19:36.565Z,101844.11
2018-09-28T14:24:29.360Z,101850.19
2018-09-28T14:29:22.923Z,101848.00
2018-09-28T14:34:15.580Z,101862.55
2018-09-28T14:39:09.153Z,101861.79
2018-09-28T14:44:01.807Z,101871.14
2018-09-28T14:48:54.643Z,101873.66
2018-09-28T14:53:47.237Z,101877.74
2018-09-28T14:58:39.930Z,101886.80
2018-09-28T15:03:32.613Z,101885.69
2018-09-28T15:08:25.368Z,101897.20
2018-09-28T15:13:18.031Z,101889.80
2018-09-28T15:18:10.917Z,101881.86
2018-09-28T15:23:03.535Z,101881.03
2018-09-28T15:27:56.136Z,101886.50
2018-09-28T15:32:48.856Z,101887.84
2018-09-28T15:37:41.520Z,101896.52
2018-09-28T15:42:34.211Z,101897.28
2018-09-28T15:47:28.028Z,101901.55
2018-09-28T15:52:21.569Z,101891.40
2018-09-28T15:57:14.360Z,101899.27
2018-09-28T16:02:07.483Z,101910.36
2018-09-28T16:07:00.288Z,101911.39
2018-09-28T16:11:52.956Z,101904.19
2018-09-28T16:16:45.737Z,101923.18
2018-09-28T16:21:38.494Z,101927.42
2018-09-28T16:26:31.138Z,101926.73
2018-09-28T16:31:23.850Z,101934.50
2018-09-28T16:36:16.571Z,101952.94
2018-09-28T16:41:09.378Z,101965.11
2018-09-28T16:46:02.082Z,101975.08
2018-09-28T16:50:54.774Z,101986.36
2018-09-28T16:55:47.429Z,101984.78
2018-09-28T17:00:40.119Z,101991.41
2018-09-28T17:05:32.957Z,102002.87
2018-09-28T17:10:26.073Z,102003.16
2018-09-28T17:15:18.908Z,102006.44
2018-09-28T17:20:11.559Z,102023.39
2018-09-28T17:25:04.221Z,102043.30
2018-09-28T17:29:57.066Z,102041.67
2018-09-28T17:34:49.775Z,102044.39
2018-09-28T17:39:42.451Z,102053.33
2018-09-28T17:44:35.089Z,102049.28
2018-09-28T17:49:27.744Z,102050.96
2018-09-28T17:54:20.407Z,102059.50
2018-09-28T17:59:13.005Z,102061.94
2018-09-28T18:04:05.737Z,102069.84
2018-09-28T18:08:58.410Z,102075.28
2018-09-28T18:13:51.048Z,102081.58
2018-09-28T18:18:43.774Z,102073.48
2018-09-28T18:23:36.470Z,102087.03
2018-09-28T18:28:29.135Z,102084.02
2018-09-28T18:33:21.897Z,102079.39
2018-09-28T18:38:14.501Z,102086.27
2018-09-28T18:43:07.122Z,102088.06
2018-09-28T18:47:59.810Z,102099.76
2018-09-28T18:52:52.458Z,102084.55
2018-09-28T18:57:45.134Z,102113.48
2018-09-28T19:02:37.882Z,102103.44
2018-09-28T19:07:31.103Z,102116.50
2018-09-28T19:12:23.704Z,102122.64
2018-09-28T19:17:16.317Z,102125.28
2018-09-28T19:22:09.047Z,102129.04
2018-09-28T19:27:01.690Z,102127.16
2018-09-28T19:39:11.352Z,102144.29
2018-09-28T19:44:04.095Z,102159.27
2018-09-28T19:48:56.797Z,102159.47
2018-09-28T19:53:49.458Z,102155.90
2018-09-28T19:58:42.198Z,102161.66
2018-09-28T20:03:34.891Z,102169.45
2018-09-28T20:08:27.543Z,102166.13
2018-09-28T20:13:20.307Z,102173.41
2018-09-28T20:18:12.909Z,102171.75
2018-09-28T20:23:05.947Z,102183.56
2018-09-28T20:27:58.988Z,102178.38
2018-09-28T20:32:52.220Z,102179.45
2018-09-28T20:37:45.085Z,102191.16
2018-09-28T20:42:38.263Z,102200.21
2018-09-28T20:47:31.378Z,102199.63
2018-09-28T20:52:24.488Z,102214.09
2018-09-28T20:57:17.458Z,102214.51
2018-09-28T21:02:10.193Z,102221.80
2018-09-28T21:07:02.861Z,102223.37
2018-09-28T21:11:55.722Z,102230.56
2018-09-28T21:16:48.694Z,102236.82
2018-09-28T21:21:41.768Z,102245.03
2018-09-28T21:26:35.365Z,102251.20
2018-09-28T21:31:28.229Z,102251.20
2018-09-28T21:36:21.140Z,102263.47
2018-09-28T21:41:14.181Z,102257.84
2018-09-28T21:46:07.098Z,102258.17
2018-09-28T21:50:59.847Z,102263.36
2018-09-28T21:55:52.470Z,102273.47
2018-09-28T22:00:46.910Z,102273.03
2018-09-28T22:05:39.521Z,102275.80
2018-09-28T22:10:32.694Z,102274.86
2018-09-28T22:15:25.306Z,102274.95
2018-09-28T22:20:17.970Z,102264.55
2018-09-28T22:25:10.619Z,102269.40
2018-09-28T22:30:03.240Z,102270.23
2018-09-28T22:34:55.880Z,102271.89
2018-09-28T22:39:48.473Z,102276.22
2018-09-28T22:44:41.049Z,102277.66
2018-09-28T22:49:33.674Z,102283.24
2018-09-28T22:54:26.306Z,102284.70
2018-09-28T22:59:19.199Z,102290.38
2018-09-28T23:04:11.819Z,102292.73
2018-09-28T23:09:05.891Z,102286.26
2018-09-28T23:13:58.494Z,102282.00
2018-09-28T23:18:51.110Z,102284.05
2018-09-28T23:23:43.714Z,102291.52
2018-09-28T23:28:36.386Z,102290.78
2018-09-28T23:33:29.038Z,102295.09
2018-09-28T23:38:21.590Z,102298.60
2018-09-28T23:43:14.178Z,102298.66
2018-09-28T23:48:06.806Z,102315.95
2018-09-28T23:52:59.437Z,102310.97
2018-09-28T23:57:52.046Z,102306.16
